Accueil
METAR-TAF:

METAR-TAF

Aéroports :

Aéroport de Parme

Parme, Italie

latitude: 44-49-17N, longitude: 010-17-41E, altitude: 50 m

Observation

Le bulletin a été fait il y a 1 heure et 11 minutes, à 08:50 UTC
Vent 2 kt de direction variable
Température 19°C
Humidité 83%
Pression 1017 hPa
Visibilité 10 km ou plus
Nuages fragmentés à une hauteur de 6000 ft

METAR: LIMP 300850Z VRB02KT 9999 BKN060 19/16 Q1017

Heure: 12:01 (10:01 UTC)

Prévision

Le bulletin a été fait il y a 2 heures et 25 minutes, à 07:36 UTC
Prévision valable du 30 à 06 UTC au 31 à 07 UTC
Vent 5 kt de direction variable
Visibilité 10 km ou plus
Quelques nuages à une hauteur de 4000 ft
Evoluant progressivement
du 30 à 09 UTC au 30 à 11 UTC
Vent 10 kt de est

TAF: LIMP 300736Z 3006/3107 VRB05KT 9999 FEW040 BECMG 3009/3011 10010KT

Observations et prévisions météorologiques de plus de 4000 aéroports (messages METAR et TAF).

Les stations disponibles sont représentées par des disques jaunes et rouges sur la carte.

Passer la souris dessus pour voir le nom de la station.

Cliquer dessus pour voir les observations et prévisions météorologiques.

Pour changer de carte: cliquez sur les boutons verts avec une croix noire pour zoomer, sur le bouton vert avec un tiret pour effectuer un zoom arrière, ou sur les flèches vertes pour les cartes adjacentes.


METAR-TAF: